Aviation Digital Data Service (ADDS)

Output produced by TAFs form (0257 UTC 21 August 2017)
found at http://aviationweather.gov/adds/tafs/
 
KAMA 202337Z 2100/2124 17013KT P6SM SCT040 BKN300 
     FM210900 25008KT P6SM SCT040 OVC100 
     FM211400 18009KT P6SM SCT050 OVC100 
     FM211800 19014G24KT P6SM SCT050 BKN120